Terminal Aerodrome Forecast
Issued by NWS Detroit/Pontiac, MI

Home | Current Version | Previous Version | Text Only | Print | Product List | Glossary On
Versions: 1 2 3 4 5 6 7 8 9 10 11 12 13 14 15 16 17 18 19
000
FTUS43 KDTX 090531
TAFFNT
TAF
KFNT 090531Z 0906/1006 28010KT P6SM SCT040
      TEMPO 0908/0912 6SM -SN BKN025
     FM091400 28013G20KT P6SM SCT025 BKN040
     FM091900 28013G20KT 6SM -SHSN BKN025
     FM100100 24010KT P6SM BKN025=

USA.gov is the U.S. government's official web portal to all federal, state and local government web resources and services.